sensor_id;sensor_type;location;lat;lon;timestamp;temperature;humidity
56234;DHT22;42141;53.240;6.580;2023-01-15T00:00:50;7.40;99.90
56234;DHT22;42141;53.240;6.580;2023-01-15T00:03:17;8.00;99.90
56234;DHT22;42141;53.240;6.580;2023-01-15T00:05:42;6.60;99.90
56234;DHT22;42141;53.240;6.580;2023-01-15T00:08:08;6.60;99.90
56234;DHT22;42141;53.240;6.580;2023-01-15T00:10:35;6.60;99.90
56234;DHT22;42141;53.240;6.580;2023-01-15T00:13:01;6.60;99.90
56234;DHT22;42141;53.240;6.580;2023-01-15T00:15:26;7.80;99.90
56234;DHT22;42141;53.240;6.580;2023-01-15T00:17:52;6.60;99.90
56234;DHT22;42141;53.240;6.580;2023-01-15T00:20:18;7.50;99.90
56234;DHT22;42141;53.240;6.580;2023-01-15T00:22:44;6.60;99.90
56234;DHT22;42141;53.240;6.580;2023-01-15T00:25:10;7.30;99.90
56234;DHT22;42141;53.240;6.580;2023-01-15T00:27:54;7.30;99.90
56234;DHT22;42141;53.240;6.580;2023-01-15T00:30:20;7.70;99.90
56234;DHT22;42141;53.240;6.580;2023-01-15T00:32:46;6.90;99.90
56234;DHT22;42141;53.240;6.580;2023-01-15T00:35:20;6.60;99.90
56234;DHT22;42141;53.240;6.580;2023-01-15T00:37:46;6.60;99.90
56234;DHT22;42141;53.240;6.580;2023-01-15T00:40:14;6.60;99.90
56234;DHT22;42141;53.240;6.580;2023-01-15T00:42:40;6.60;99.90
56234;DHT22;42141;53.240;6.580;2023-01-15T00:45:07;6.60;99.90
56234;DHT22;42141;53.240;6.580;2023-01-15T00:47:38;6.60;99.90
56234;DHT22;42141;53.240;6.580;2023-01-15T00:50:06;6.50;99.90
56234;DHT22;42141;53.240;6.580;2023-01-15T00:52:32;6.50;99.90
56234;DHT22;42141;53.240;6.580;2023-01-15T00:54:58;7.20;99.90
56234;DHT22;42141;53.240;6.580;2023-01-15T00:57:23;7.00;99.90
56234;DHT22;42141;53.240;6.580;2023-01-15T00:59:49;6.50;99.90
56234;DHT22;42141;53.240;6.580;2023-01-15T01:02:15;7.50;99.90
56234;DHT22;42141;53.240;6.580;2023-01-15T01:04:41;6.50;99.90
56234;DHT22;42141;53.240;6.580;2023-01-15T01:07:07;7.70;99.90
56234;DHT22;42141;53.240;6.580;2023-01-15T01:09:32;6.50;99.90
56234;DHT22;42141;53.240;6.580;2023-01-15T01:11:58;6.50;99.90
56234;DHT22;42141;53.240;6.580;2023-01-15T01:14:24;6.50;99.90
56234;DHT22;42141;53.240;6.580;2023-01-15T01:16:49;7.00;99.90
56234;DHT22;42141;53.240;6.580;2023-01-15T01:19:20;7.60;99.90
56234;DHT22;42141;53.240;6.580;2023-01-15T01:21:47;6.60;99.90
56234;DHT22;42141;53.240;6.580;2023-01-15T01:24:18;6.60;99.90
56234;DHT22;42141;53.240;6.580;2023-01-15T01:26:44;6.60;99.90
56234;DHT22;42141;53.240;6.580;2023-01-15T01:29:15;7.10;99.90
56234;DHT22;42141;53.240;6.580;2023-01-15T01:31:42;6.60;99.90
56234;DHT22;42141;53.240;6.580;2023-01-15T01:34:09;6.60;99.90
56234;DHT22;42141;53.240;6.580;2023-01-15T01:36:37;6.50;99.90
56234;DHT22;42141;53.240;6.580;2023-01-15T01:39:04;6.60;99.90
56234;DHT22;42141;53.240;6.580;2023-01-15T01:41:31;6.90;99.90
56234;DHT22;42141;53.240;6.580;2023-01-15T01:46:47;6.50;99.90
56234;DHT22;42141;53.240;6.580;2023-01-15T01:49:13;7.30;99.90
56234;DHT22;42141;53.240;6.580;2023-01-15T01:51:42;6.50;99.90
56234;DHT22;42141;53.240;6.580;2023-01-15T01:54:10;6.40;99.90
56234;DHT22;42141;53.240;6.580;2023-01-15T01:56:37;7.30;99.90
56234;DHT22;42141;53.240;6.580;2023-01-15T01:59:04;6.50;99.90
56234;DHT22;42141;53.240;6.580;2023-01-15T02:01:30;6.90;99.90
56234;DHT22;42141;53.240;6.580;2023-01-15T02:03:56;6.50;99.90
56234;DHT22;42141;53.240;6.580;2023-01-15T02:06:23;7.80;99.90
56234;DHT22;42141;53.240;6.580;2023-01-15T02:08:50;6.50;99.90
56234;DHT22;42141;53.240;6.580;2023-01-15T02:11:19;7.30;99.90
56234;DHT22;42141;53.240;6.580;2023-01-15T02:16:41;7.30;99.90
56234;DHT22;42141;53.240;6.580;2023-01-15T02:28:15;6.40;99.90
56234;DHT22;42141;53.240;6.580;2023-01-15T02:30:46;6.40;99.90
56234;DHT22;42141;53.240;6.580;2023-01-15T02:33:21;7.40;99.90
56234;DHT22;42141;53.240;6.580;2023-01-15T02:35:58;6.40;99.90
56234;DHT22;42141;53.240;6.580;2023-01-15T02:38:41;7.10;99.90
56234;DHT22;42141;53.240;6.580;2023-01-15T02:41:09;6.40;99.90
56234;DHT22;42141;53.240;6.580;2023-01-15T02:43:47;6.70;99.90
56234;DHT22;42141;53.240;6.580;2023-01-15T02:46:15;6.50;99.90
56234;DHT22;42141;53.240;6.580;2023-01-15T02:48:45;6.50;99.90
56234;DHT22;42141;53.240;6.580;2023-01-15T02:51:16;7.30;99.90
56234;DHT22;42141;53.240;6.580;2023-01-15T02:53:45;7.40;99.90
56234;DHT22;42141;53.240;6.580;2023-01-15T02:56:20;6.40;99.90
56234;DHT22;42141;53.240;6.580;2023-01-15T02:58:50;6.90;99.90
56234;DHT22;42141;53.240;6.580;2023-01-15T03:01:25;7.10;99.90
56234;DHT22;42141;53.240;6.580;2023-01-15T03:06:31;6.40;99.90
56234;DHT22;42141;53.240;6.580;2023-01-15T03:08:58;6.40;99.90
56234;DHT22;42141;53.240;6.580;2023-01-15T03:11:24;6.70;99.90
56234;DHT22;42141;53.240;6.580;2023-01-15T03:16:46;6.30;99.90
56234;DHT22;42141;53.240;6.580;2023-01-15T03:22:33;6.40;99.90
56234;DHT22;42141;53.240;6.580;2023-01-15T03:25:06;6.50;99.90
56234;DHT22;42141;53.240;6.580;2023-01-15T03:27:34;6.40;99.90
56234;DHT22;42141;53.240;6.580;2023-01-15T03:30:06;6.50;99.90
56234;DHT22;42141;53.240;6.580;2023-01-15T03:32:33;6.40;99.90
56234;DHT22;42141;53.240;6.580;2023-01-15T03:34:59;6.40;99.90
56234;DHT22;42141;53.240;6.580;2023-01-15T03:37:26;6.40;99.90
56234;DHT22;42141;53.240;6.580;2023-01-15T03:39:53;6.40;99.90
56234;DHT22;42141;53.240;6.580;2023-01-15T03:48:01;6.40;99.90
56234;DHT22;42141;53.240;6.580;2023-01-15T03:53:19;6.40;99.90
56234;DHT22;42141;53.240;6.580;2023-01-15T03:58:28;6.40;99.90
56234;DHT22;42141;53.240;6.580;2023-01-15T04:00:57;6.40;99.90
56234;DHT22;42141;53.240;6.580;2023-01-15T04:03:25;6.30;99.90
56234;DHT22;42141;53.240;6.580;2023-01-15T04:05:55;6.60;99.90
56234;DHT22;42141;53.240;6.580;2023-01-15T04:08:23;7.40;99.90
56234;DHT22;42141;53.240;6.580;2023-01-15T04:10:55;6.30;99.90
56234;DHT22;42141;53.240;6.580;2023-01-15T04:13:21;6.30;99.90
56234;DHT22;42141;53.240;6.580;2023-01-15T04:15:47;6.30;99.90
56234;DHT22;42141;53.240;6.580;2023-01-15T04:18:13;6.40;99.90
56234;DHT22;42141;53.240;6.580;2023-01-15T04:20:39;6.70;99.90
56234;DHT22;42141;53.240;6.580;2023-01-15T04:23:05;7.00;99.90
56234;DHT22;42141;53.240;6.580;2023-01-15T04:25:30;7.30;99.90
56234;DHT22;42141;53.240;6.580;2023-01-15T04:27:56;6.20;99.90
56234;DHT22;42141;53.240;6.580;2023-01-15T04:30:22;6.20;99.90
56234;DHT22;42141;53.240;6.580;2023-01-15T04:32:49;7.20;99.90
56234;DHT22;42141;53.240;6.580;2023-01-15T04:35:15;6.30;99.90
56234;DHT22;42141;53.240;6.580;2023-01-15T04:37:41;7.10;99.90
56234;DHT22;42141;53.240;6.580;2023-01-15T04:40:07;6.20;99.90
56234;DHT22;42141;53.240;6.580;2023-01-15T04:42:33;6.20;99.90
56234;DHT22;42141;53.240;6.580;2023-01-15T04:45:18;6.30;99.90
56234;DHT22;42141;53.240;6.580;2023-01-15T04:47:43;6.20;99.90
56234;DHT22;42141;53.240;6.580;2023-01-15T04:50:10;6.10;99.90
56234;DHT22;42141;53.240;6.580;2023-01-15T04:52:36;6.10;99.90
56234;DHT22;42141;53.240;6.580;2023-01-15T04:55:03;7.30;99.90
56234;DHT22;42141;53.240;6.580;2023-01-15T04:57:29;6.10;99.90
56234;DHT22;42141;53.240;6.580;2023-01-15T04:59:54;6.10;99.90
56234;DHT22;42141;53.240;6.580;2023-01-15T05:02:20;6.20;99.90
56234;DHT22;42141;53.240;6.580;2023-01-15T05:04:46;6.00;99.90
56234;DHT22;42141;53.240;6.580;2023-01-15T05:07:12;6.00;99.90
56234;DHT22;42141;53.240;6.580;2023-01-15T05:09:38;6.10;99.90
56234;DHT22;42141;53.240;6.580;2023-01-15T05:12:04;6.60;99.90
56234;DHT22;42141;53.240;6.580;2023-01-15T05:14:29;6.00;99.90
56234;DHT22;42141;53.240;6.580;2023-01-15T05:16:55;6.00;99.90
56234;DHT22;42141;53.240;6.580;2023-01-15T05:19:21;7.10;99.90
56234;DHT22;42141;53.240;6.580;2023-01-15T05:21:47;7.10;99.90
56234;DHT22;42141;53.240;6.580;2023-01-15T05:24:15;5.90;99.90
56234;DHT22;42141;53.240;6.580;2023-01-15T05:26:42;5.90;99.90
56234;DHT22;42141;53.240;6.580;2023-01-15T05:29:10;5.90;99.90
56234;DHT22;42141;53.240;6.580;2023-01-15T05:31:35;6.90;99.90
56234;DHT22;42141;53.240;6.580;2023-01-15T05:34:01;5.90;99.90
56234;DHT22;42141;53.240;6.580;2023-01-15T05:36:29;5.80;99.90
56234;DHT22;42141;53.240;6.580;2023-01-15T05:38:56;5.80;99.90
56234;DHT22;42141;53.240;6.580;2023-01-15T05:41:26;5.80;99.90
56234;DHT22;42141;53.240;6.580;2023-01-15T05:44:11;6.40;99.90
56234;DHT22;42141;53.240;6.580;2023-01-15T05:46:38;6.60;99.90
56234;DHT22;42141;53.240;6.580;2023-01-15T05:49:07;5.80;99.90
56234;DHT22;42141;53.240;6.580;2023-01-15T05:51:34;5.70;99.90
56234;DHT22;42141;53.240;6.580;2023-01-15T05:54:01;5.80;99.90
56234;DHT22;42141;53.240;6.580;2023-01-15T05:56:27;6.10;99.90
56234;DHT22;42141;53.240;6.580;2023-01-15T05:58:53;5.70;99.90
56234;DHT22;42141;53.240;6.580;2023-01-15T06:01:19;5.60;99.90
56234;DHT22;42141;53.240;6.580;2023-01-15T06:03:45;5.60;99.90
56234;DHT22;42141;53.240;6.580;2023-01-15T06:06:15;5.60;99.90
56234;DHT22;42141;53.240;6.580;2023-01-15T06:08:42;5.60;99.90
56234;DHT22;42141;53.240;6.580;2023-01-15T06:11:08;5.60;99.90
56234;DHT22;42141;53.240;6.580;2023-01-15T06:13:35;6.10;99.90
56234;DHT22;42141;53.240;6.580;2023-01-15T06:16:02;5.60;99.90
56234;DHT22;42141;53.240;6.580;2023-01-15T06:18:28;5.60;99.90
56234;DHT22;42141;53.240;6.580;2023-01-15T06:20:53;5.60;99.90
56234;DHT22;42141;53.240;6.580;2023-01-15T06:23:19;5.60;99.90
56234;DHT22;42141;53.240;6.580;2023-01-15T06:25:45;5.60;99.90
56234;DHT22;42141;53.240;6.580;2023-01-15T06:28:11;5.60;99.90
56234;DHT22;42141;53.240;6.580;2023-01-15T06:30:38;5.50;99.90
56234;DHT22;42141;53.240;6.580;2023-01-15T06:33:05;5.50;99.90
56234;DHT22;42141;53.240;6.580;2023-01-15T06:35:31;5.50;99.90
56234;DHT22;42141;53.240;6.580;2023-01-15T06:37:56;5.50;99.90
56234;DHT22;42141;53.240;6.580;2023-01-15T06:40:22;5.50;99.90
56234;DHT22;42141;53.240;6.580;2023-01-15T06:42:49;6.80;99.90
56234;DHT22;42141;53.240;6.580;2023-01-15T06:45:38;5.60;99.90
56234;DHT22;42141;53.240;6.580;2023-01-15T06:48:24;6.00;99.90
56234;DHT22;42141;53.240;6.580;2023-01-15T06:50:50;6.60;99.90
56234;DHT22;42141;53.240;6.580;2023-01-15T06:53:16;5.80;99.90
56234;DHT22;42141;53.240;6.580;2023-01-15T06:55:42;5.60;99.90
56234;DHT22;42141;53.240;6.580;2023-01-15T06:58:08;6.10;99.90
56234;DHT22;42141;53.240;6.580;2023-01-15T07:00:34;5.60;99.90
56234;DHT22;42141;53.240;6.580;2023-01-15T07:03:00;6.00;99.90
56234;DHT22;42141;53.240;6.580;2023-01-15T07:05:26;5.50;99.90
56234;DHT22;42141;53.240;6.580;2023-01-15T07:07:52;5.50;99.90
56234;DHT22;42141;53.240;6.580;2023-01-15T07:10:18;5.50;99.90
56234;DHT22;42141;53.240;6.580;2023-01-15T07:12:44;5.90;99.90
56234;DHT22;42141;53.240;6.580;2023-01-15T07:15:10;5.60;99.90
56234;DHT22;42141;53.240;6.580;2023-01-15T07:17:38;5.60;99.90
56234;DHT22;42141;53.240;6.580;2023-01-15T07:20:04;5.50;99.90
56234;DHT22;42141;53.240;6.580;2023-01-15T07:22:31;5.50;99.90
56234;DHT22;42141;53.240;6.580;2023-01-15T07:24:56;5.50;99.90
56234;DHT22;42141;53.240;6.580;2023-01-15T07:27:23;5.50;99.90
56234;DHT22;42141;53.240;6.580;2023-01-15T07:29:48;6.70;99.90
56234;DHT22;42141;53.240;6.580;2023-01-15T07:32:16;5.50;99.90
56234;DHT22;42141;53.240;6.580;2023-01-15T07:34:42;5.60;99.90
56234;DHT22;42141;53.240;6.580;2023-01-15T07:37:08;5.60;99.90
56234;DHT22;42141;53.240;6.580;2023-01-15T07:39:34;5.60;99.90
56234;DHT22;42141;53.240;6.580;2023-01-15T07:41:59;5.60;99.90
56234;DHT22;42141;53.240;6.580;2023-01-15T07:44:44;5.60;99.90
56234;DHT22;42141;53.240;6.580;2023-01-15T07:47:28;5.60;99.90
56234;DHT22;42141;53.240;6.580;2023-01-15T07:50:21;5.60;99.90
56234;DHT22;42141;53.240;6.580;2023-01-15T07:52:47;5.60;99.90
56234;DHT22;42141;53.240;6.580;2023-01-15T07:55:13;5.50;99.90
56234;DHT22;42141;53.240;6.580;2023-01-15T07:57:40;6.10;99.90
56234;DHT22;42141;53.240;6.580;2023-01-15T08:00:20;5.50;99.90
56234;DHT22;42141;53.240;6.580;2023-01-15T08:02:46;5.40;99.90
56234;DHT22;42141;53.240;6.580;2023-01-15T08:05:15;6.70;99.90
56234;DHT22;42141;53.240;6.580;2023-01-15T08:07:42;5.60;99.90
56234;DHT22;42141;53.240;6.580;2023-01-15T08:10:10;5.60;99.90
56234;DHT22;42141;53.240;6.580;2023-01-15T08:12:36;5.60;99.90
56234;DHT22;42141;53.240;6.580;2023-01-15T08:15:20;6.60;99.90
56234;DHT22;42141;53.240;6.580;2023-01-15T08:17:47;5.70;99.90
56234;DHT22;42141;53.240;6.580;2023-01-15T08:20:22;5.70;99.90
56234;DHT22;42141;53.240;6.580;2023-01-15T08:22:48;5.80;99.90
56234;DHT22;42141;53.240;6.580;2023-01-15T08:25:16;7.00;99.90
56234;DHT22;42141;53.240;6.580;2023-01-15T08:27:43;5.90;99.90
56234;DHT22;42141;53.240;6.580;2023-01-15T08:30:15;7.20;99.90
56234;DHT22;42141;53.240;6.580;2023-01-15T08:32:41;5.80;99.90
56234;DHT22;42141;53.240;6.580;2023-01-15T08:35:08;5.80;99.90
56234;DHT22;42141;53.240;6.580;2023-01-15T08:37:34;5.80;99.90
56234;DHT22;42141;53.240;6.580;2023-01-15T08:39:59;5.80;99.90
56234;DHT22;42141;53.240;6.580;2023-01-15T08:42:25;5.80;99.90
56234;DHT22;42141;53.240;6.580;2023-01-15T08:44:51;5.80;99.90
56234;DHT22;42141;53.240;6.580;2023-01-15T08:47:17;6.80;99.90
56234;DHT22;42141;53.240;6.580;2023-01-15T08:49:43;5.90;99.90
56234;DHT22;42141;53.240;6.580;2023-01-15T08:52:09;6.00;99.90
56234;DHT22;42141;53.240;6.580;2023-01-15T08:54:34;6.00;99.90
56234;DHT22;42141;53.240;6.580;2023-01-15T08:57:00;6.00;99.90
56234;DHT22;42141;53.240;6.580;2023-01-15T08:59:26;6.00;99.90
56234;DHT22;42141;53.240;6.580;2023-01-15T09:01:52;6.80;99.90
56234;DHT22;42141;53.240;6.580;2023-01-15T09:04:20;6.90;99.90
56234;DHT22;42141;53.240;6.580;2023-01-15T09:06:47;5.70;99.90
56234;DHT22;42141;53.240;6.580;2023-01-15T09:09:13;5.60;99.90
56234;DHT22;42141;53.240;6.580;2023-01-15T09:11:40;5.40;99.90
56234;DHT22;42141;53.240;6.580;2023-01-15T09:14:07;5.30;99.90
56234;DHT22;42141;53.240;6.580;2023-01-15T09:16:34;5.60;99.90
56234;DHT22;42141;53.240;6.580;2023-01-15T09:19:00;5.70;99.90
56234;DHT22;42141;53.240;6.580;2023-01-15T09:21:26;5.20;99.90
56234;DHT22;42141;53.240;6.580;2023-01-15T09:23:55;6.40;99.90
56234;DHT22;42141;53.240;6.580;2023-01-15T09:26:30;5.30;99.90
56234;DHT22;42141;53.240;6.580;2023-01-15T09:28:57;5.30;99.90
56234;DHT22;42141;53.240;6.580;2023-01-15T09:31:23;5.40;99.90
56234;DHT22;42141;53.240;6.580;2023-01-15T09:33:49;6.10;99.90
56234;DHT22;42141;53.240;6.580;2023-01-15T09:36:16;6.10;99.90
56234;DHT22;42141;53.240;6.580;2023-01-15T09:38:43;5.90;99.90
56234;DHT22;42141;53.240;6.580;2023-01-15T09:41:11;6.00;99.90
56234;DHT22;42141;53.240;6.580;2023-01-15T09:44:38;5.60;99.90
56234;DHT22;42141;53.240;6.580;2023-01-15T09:47:35;5.70;99.90
56234;DHT22;42141;53.240;6.580;2023-01-15T09:50:17;5.70;99.90
56234;DHT22;42141;53.240;6.580;2023-01-15T09:52:53;5.70;99.90
56234;DHT22;42141;53.240;6.580;2023-01-15T09:55:27;5.80;99.90
56234;DHT22;42141;53.240;6.580;2023-01-15T09:57:57;6.20;99.90
56234;DHT22;42141;53.240;6.580;2023-01-15T10:00:26;6.10;99.90
56234;DHT22;42141;53.240;6.580;2023-01-15T10:08:25;7.10;99.90
56234;DHT22;42141;53.240;6.580;2023-01-15T10:11:04;6.60;99.90
56234;DHT22;42141;53.240;6.580;2023-01-15T10:13:42;6.70;99.90
56234;DHT22;42141;53.240;6.580;2023-01-15T10:16:11;7.50;99.90
56234;DHT22;42141;53.240;6.580;2023-01-15T10:18:37;6.80;99.90
56234;DHT22;42141;53.240;6.580;2023-01-15T10:24:36;6.80;99.90
56234;DHT22;42141;53.240;6.580;2023-01-15T10:27:14;7.10;99.90
56234;DHT22;42141;53.240;6.580;2023-01-15T10:29:45;7.00;99.90
56234;DHT22;42141;53.240;6.580;2023-01-15T10:37:50;7.10;99.90
56234;DHT22;42141;53.240;6.580;2023-01-15T10:46:10;7.40;99.90
56234;DHT22;42141;53.240;6.580;2023-01-15T10:48:55;7.50;99.90
56234;DHT22;42141;53.240;6.580;2023-01-15T10:51:25;7.60;99.90
56234;DHT22;42141;53.240;6.580;2023-01-15T10:56:44;7.60;99.90
56234;DHT22;42141;53.240;6.580;2023-01-15T11:05:01;7.50;99.90
56234;DHT22;42141;53.240;6.580;2023-01-15T11:07:40;7.50;99.90
56234;DHT22;42141;53.240;6.580;2023-01-15T11:10:09;8.10;99.90
56234;DHT22;42141;53.240;6.580;2023-01-15T11:12:38;7.60;99.90
56234;DHT22;42141;53.240;6.580;2023-01-15T11:15:24;7.40;99.90
56234;DHT22;42141;53.240;6.580;2023-01-15T11:18:20;7.70;99.90
56234;DHT22;42141;53.240;6.580;2023-01-15T11:21:11;7.80;99.90
56234;DHT22;42141;53.240;6.580;2023-01-15T11:23:37;7.80;99.90
56234;DHT22;42141;53.240;6.580;2023-01-15T11:26:03;8.70;99.90
56234;DHT22;42141;53.240;6.580;2023-01-15T11:28:32;7.90;99.90
56234;DHT22;42141;53.240;6.580;2023-01-15T11:31:03;7.80;99.90
56234;DHT22;42141;53.240;6.580;2023-01-15T11:33:29;7.80;99.90
56234;DHT22;42141;53.240;6.580;2023-01-15T11:36:02;7.80;99.90
56234;DHT22;42141;53.240;6.580;2023-01-15T11:38:41;7.70;99.90
56234;DHT22;42141;53.240;6.580;2023-01-15T11:43:58;7.70;99.90
56234;DHT22;42141;53.240;6.580;2023-01-15T11:46:45;7.60;99.90
56234;DHT22;42141;53.240;6.580;2023-01-15T11:49:29;7.60;99.90
56234;DHT22;42141;53.240;6.580;2023-01-15T11:52:21;7.60;99.90
56234;DHT22;42141;53.240;6.580;2023-01-15T11:54:51;7.60;99.90
56234;DHT22;42141;53.240;6.580;2023-01-15T11:57:43;7.60;99.90
56234;DHT22;42141;53.240;6.580;2023-01-15T12:00:28;7.50;99.90
56234;DHT22;42141;53.240;6.580;2023-01-15T12:03:00;7.60;99.90
56234;DHT22;42141;53.240;6.580;2023-01-15T12:05:30;7.30;99.90
56234;DHT22;42141;53.240;6.580;2023-01-15T12:08:00;7.20;99.90
56234;DHT22;42141;53.240;6.580;2023-01-15T12:10:32;7.10;99.90
56234;DHT22;42141;53.240;6.580;2023-01-15T12:13:43;7.10;99.90
56234;DHT22;42141;53.240;6.580;2023-01-15T12:19:41;7.00;99.90
56234;DHT22;42141;53.240;6.580;2023-01-15T12:22:08;6.90;99.90
56234;DHT22;42141;53.240;6.580;2023-01-15T12:25:10;6.90;99.90
56234;DHT22;42141;53.240;6.580;2023-01-15T12:27:51;6.90;99.90
56234;DHT22;42141;53.240;6.580;2023-01-15T12:33:00;6.40;99.90
56234;DHT22;42141;53.240;6.580;2023-01-15T12:35:37;5.90;99.90
56234;DHT22;42141;53.240;6.580;2023-01-15T12:38:45;5.60;99.90
56234;DHT22;42141;53.240;6.580;2023-01-15T12:41:12;5.40;99.90
56234;DHT22;42141;53.240;6.580;2023-01-15T12:43:42;5.30;99.90
56234;DHT22;42141;53.240;6.580;2023-01-15T12:46:30;5.30;99.90
56234;DHT22;42141;53.240;6.580;2023-01-15T12:49:08;5.30;99.90
56234;DHT22;42141;53.240;6.580;2023-01-15T12:51:49;5.30;99.90
56234;DHT22;42141;53.240;6.580;2023-01-15T12:54:20;5.40;99.90
56234;DHT22;42141;53.240;6.580;2023-01-15T12:57:53;5.70;99.90
56234;DHT22;42141;53.240;6.580;2023-01-15T13:00:19;6.50;99.90
56234;DHT22;42141;53.240;6.580;2023-01-15T13:02:59;5.50;99.90
56234;DHT22;42141;53.240;6.580;2023-01-15T13:05:45;5.60;99.90
56234;DHT22;42141;53.240;6.580;2023-01-15T13:10:49;5.60;99.90
56234;DHT22;42141;53.240;6.580;2023-01-15T13:13:23;5.60;99.90
56234;DHT22;42141;53.240;6.580;2023-01-15T13:21:23;5.70;99.90
56234;DHT22;42141;53.240;6.580;2023-01-15T13:26:36;6.80;99.90
56234;DHT22;42141;53.240;6.580;2023-01-15T13:34:55;5.70;99.90
56234;DHT22;42141;53.240;6.580;2023-01-15T13:37:26;5.70;99.90
56234;DHT22;42141;53.240;6.580;2023-01-15T13:40:00;6.20;99.90
56234;DHT22;42141;53.240;6.580;2023-01-15T13:42:28;6.70;99.90
56234;DHT22;42141;53.240;6.580;2023-01-15T13:45:00;6.30;99.90
56234;DHT22;42141;53.240;6.580;2023-01-15T13:47:30;5.70;99.90
56234;DHT22;42141;53.240;6.580;2023-01-15T13:49:59;5.70;99.90
56234;DHT22;42141;53.240;6.580;2023-01-15T13:52:44;5.60;99.90
56234;DHT22;42141;53.240;6.580;2023-01-15T13:55:49;5.60;99.90
56234;DHT22;42141;53.240;6.580;2023-01-15T13:58:37;5.50;99.90
56234;DHT22;42141;53.240;6.580;2023-01-15T14:06:48;5.30;99.90
56234;DHT22;42141;53.240;6.580;2023-01-15T14:17:32;5.30;99.90
56234;DHT22;42141;53.240;6.580;2023-01-15T14:34:28;5.60;99.90
56234;DHT22;42141;53.240;6.580;2023-01-15T14:40:27;5.80;99.90
56234;DHT22;42141;53.240;6.580;2023-01-15T14:42:54;6.30;99.90
56234;DHT22;42141;53.240;6.580;2023-01-15T14:45:32;5.80;99.90
56234;DHT22;42141;53.240;6.580;2023-01-15T14:50:52;5.90;99.90
56234;DHT22;42141;53.240;6.580;2023-01-15T14:53:32;6.00;99.90
56234;DHT22;42141;53.240;6.580;2023-01-15T14:59:15;5.70;99.90
56234;DHT22;42141;53.240;6.580;2023-01-15T15:01:50;6.00;99.90
56234;DHT22;42141;53.240;6.580;2023-01-15T15:12:34;6.30;99.90
56234;DHT22;42141;53.240;6.580;2023-01-15T15:21:06;6.00;99.90
56234;DHT22;42141;53.240;6.580;2023-01-15T15:26:20;6.00;99.90
56234;DHT22;42141;53.240;6.580;2023-01-15T15:29:14;6.00;99.90
56234;DHT22;42141;53.240;6.580;2023-01-15T15:34:16;5.60;99.90
56234;DHT22;42141;53.240;6.580;2023-01-15T15:36:44;5.90;99.90
56234;DHT22;42141;53.240;6.580;2023-01-15T15:41:59;5.90;99.90
56234;DHT22;42141;53.240;6.580;2023-01-15T15:44:50;6.30;99.90
56234;DHT22;42141;53.240;6.580;2023-01-15T15:47:40;6.80;99.90
56234;DHT22;42141;53.240;6.580;2023-01-15T15:50:30;6.30;99.90
56234;DHT22;42141;53.240;6.580;2023-01-15T15:52:57;5.90;99.90
56234;DHT22;42141;53.240;6.580;2023-01-15T15:55:26;5.80;99.90
56234;DHT22;42141;53.240;6.580;2023-01-15T15:57:59;5.90;99.90
56234;DHT22;42141;53.240;6.580;2023-01-15T16:00:31;5.80;99.90
56234;DHT22;42141;53.240;6.580;2023-01-15T16:03:05;5.80;99.90
56234;DHT22;42141;53.240;6.580;2023-01-15T16:05:32;5.80;99.90
56234;DHT22;42141;53.240;6.580;2023-01-15T16:08:18;5.80;99.90
56234;DHT22;42141;53.240;6.580;2023-01-15T16:10:48;5.70;99.90
56234;DHT22;42141;53.240;6.580;2023-01-15T16:13:44;5.70;99.90
56234;DHT22;42141;53.240;6.580;2023-01-15T16:16:12;5.70;99.90
56234;DHT22;42141;53.240;6.580;2023-01-15T16:18:47;5.70;99.90
56234;DHT22;42141;53.240;6.580;2023-01-15T16:24:01;5.60;99.90
56234;DHT22;42141;53.240;6.580;2023-01-15T16:26:46;5.60;99.90
56234;DHT22;42141;53.240;6.580;2023-01-15T16:29:21;5.50;99.90
56234;DHT22;42141;53.240;6.580;2023-01-15T16:31:48;6.90;99.90
56234;DHT22;42141;53.240;6.580;2023-01-15T16:34:23;5.50;99.90
56234;DHT22;42141;53.240;6.580;2023-01-15T16:36:49;5.40;99.90
56234;DHT22;42141;53.240;6.580;2023-01-15T16:39:36;5.40;99.90
56234;DHT22;42141;53.240;6.580;2023-01-15T16:42:04;5.40;99.90
56234;DHT22;42141;53.240;6.580;2023-01-15T16:44:53;5.40;99.90
56234;DHT22;42141;53.240;6.580;2023-01-15T16:47:23;6.70;99.90
56234;DHT22;42141;53.240;6.580;2023-01-15T16:49:49;6.10;99.90
56234;DHT22;42141;53.240;6.580;2023-01-15T16:52:53;6.40;99.90
56234;DHT22;42141;53.240;6.580;2023-01-15T16:55:39;5.40;99.90
56234;DHT22;42141;53.240;6.580;2023-01-15T17:00:38;6.40;99.90
56234;DHT22;42141;53.240;6.580;2023-01-15T17:03:12;6.60;99.90
56234;DHT22;42141;53.240;6.580;2023-01-15T17:05:39;5.30;99.90
56234;DHT22;42141;53.240;6.580;2023-01-15T17:08:23;5.30;99.90
56234;DHT22;42141;53.240;6.580;2023-01-15T17:10:54;5.30;99.90
56234;DHT22;42141;53.240;6.580;2023-01-15T17:13:21;5.70;99.90
56234;DHT22;42141;53.240;6.580;2023-01-15T17:16:04;4.30;99.90
56234;DHT22;42141;53.240;6.580;2023-01-15T17:18:31;5.30;99.90
56234;DHT22;42141;53.240;6.580;2023-01-15T17:20:58;5.20;99.90
56234;DHT22;42141;53.240;6.580;2023-01-15T17:23:27;5.50;99.90
56234;DHT22;42141;53.240;6.580;2023-01-15T17:25:55;5.20;99.90
56234;DHT22;42141;53.240;6.580;2023-01-15T17:28:21;6.00;99.90
56234;DHT22;42141;53.240;6.580;2023-01-15T17:30:50;5.10;99.90
56234;DHT22;42141;53.240;6.580;2023-01-15T17:33:17;5.10;99.90
56234;DHT22;42141;53.240;6.580;2023-01-15T17:35:43;5.10;99.90
56234;DHT22;42141;53.240;6.580;2023-01-15T17:38:14;5.20;99.90
56234;DHT22;42141;53.240;6.580;2023-01-15T17:40:40;5.20;99.90
56234;DHT22;42141;53.240;6.580;2023-01-15T17:43:08;5.20;99.90
56234;DHT22;42141;53.240;6.580;2023-01-15T17:45:34;5.20;99.90
56234;DHT22;42141;53.240;6.580;2023-01-15T17:48:00;5.10;99.90
56234;DHT22;42141;53.240;6.580;2023-01-15T17:50:28;5.10;99.90
56234;DHT22;42141;53.240;6.580;2023-01-15T17:52:54;5.70;99.90
56234;DHT22;42141;53.240;6.580;2023-01-15T17:55:22;5.10;99.90
56234;DHT22;42141;53.240;6.580;2023-01-15T17:58:14;5.10;99.90
56234;DHT22;42141;53.240;6.580;2023-01-15T18:00:59;4.40;99.90
56234;DHT22;42141;53.240;6.580;2023-01-15T18:03:46;5.10;99.90
56234;DHT22;42141;53.240;6.580;2023-01-15T18:06:31;5.10;99.90
56234;DHT22;42141;53.240;6.580;2023-01-15T18:08:59;5.30;99.90
56234;DHT22;42141;53.240;6.580;2023-01-15T18:11:25;5.00;99.90
56234;DHT22;42141;53.240;6.580;2023-01-15T18:13:51;5.00;99.90
56234;DHT22;42141;53.240;6.580;2023-01-15T18:16:20;5.00;99.90
56234;DHT22;42141;53.240;6.580;2023-01-15T18:18:46;5.90;99.90
56234;DHT22;42141;53.240;6.580;2023-01-15T18:21:12;5.70;99.90
56234;DHT22;42141;53.240;6.580;2023-01-15T18:23:38;5.00;99.90
56234;DHT22;42141;53.240;6.580;2023-01-15T18:26:07;5.00;99.90
56234;DHT22;42141;53.240;6.580;2023-01-15T18:28:34;5.00;99.90
56234;DHT22;42141;53.240;6.580;2023-01-15T18:31:04;5.00;99.90
56234;DHT22;42141;53.240;6.580;2023-01-15T18:33:30;5.00;99.90
56234;DHT22;42141;53.240;6.580;2023-01-15T18:36:08;5.70;99.90
56234;DHT22;42141;53.240;6.580;2023-01-15T18:38:36;5.00;99.90
56234;DHT22;42141;53.240;6.580;2023-01-15T18:41:16;5.00;99.90
56234;DHT22;42141;53.240;6.580;2023-01-15T18:44:12;5.00;99.90